< Typhoon 199721 1997 Season Typhoon 199723 >
Typhoon 199722 (GINGER)
General InformationTrack Information on Google MapsDetailed Wind InformationList of All Images || Disaster Info.ResourceGoogle EarthGE AnimationAtom FeedGeoJSON
Detalied Best Track (Time Zone = UTC)
Year Month Day Hour Lat. Long. Pressure (hPa) Wind (kt) Class Image Chart
1997 9 23 00 10.0 168.0 1010 0 2 Image Chart
1997 9 23 06 11.0 167.0 1008 0 2 Image Chart
1997 9 23 12 12.0 166.0 1008 0 2 Image Chart
1997 9 23 18 13.0 165.0 1008 0 2 Image Chart
1997 9 24 00 13.6 164.4 1006 0 2 Image Chart
1997 9 24 06 14.0 163.6 1006 0 2 Image Chart
1997 9 24 12 14.2 163.0 998 35 3 Image Chart
1997 9 24 18 15.0 162.5 994 40 3 Image Chart
1997 9 25 00 16.9 162.7 990 45 3 Image Chart
1997 9 25 06 18.3 161.9 985 50 4 Image Chart
1997 9 25 12 19.2 161.0 980 55 4 Image Chart
1997 9 25 18 20.0 160.6 975 60 4 Image Chart
1997 9 26 00 20.2 160.4 965 70 5 Image Chart
1997 9 26 06 20.5 160.4 955 80 5 Image Chart
1997 9 26 12 20.8 160.3 945 85 5 Image Chart
1997 9 26 18 21.6 160.0 940 90 5 Image Chart
1997 9 27 00 21.6 159.3 935 90 5 Image Chart
1997 9 27 06 22.7 158.8 935 90 5 Image Chart
1997 9 27 12 22.9 158.2 925 95 5 Image Chart
1997 9 27 18 23.6 157.9 925 95 5 Image Chart
1997 9 28 00 24.5 157.9 925 95 5 Image Chart
1997 9 28 06 25.5 157.7 925 95 5 Image Chart
1997 9 28 12 26.7 157.6 935 90 5 Image Chart
1997 9 28 18 28.1 157.9 935 90 5 Image Chart
1997 9 29 00 29.6 158.5 945 85 5 Image Chart
1997 9 29 06 31.3 159.9 955 75 5 Image Chart
1997 9 29 12 33.5 161.9 965 70 5 Image Chart
1997 9 29 18 36.4 164.5 970 65 5 Image Chart
1997 9 30 00 39.5 168.0 975 60 4 Image Chart
1997 9 30 06 43.2 173.3 980 55 4 Image Chart
1997 9 30 12 45.4 177.6 984 0 6 Image Chart
1997 9 30 18 46.2 181.2 980 0 6 Image Chart
Japan Meteorological Agency Best Track Data | Correction Date : 1998-01-19
< Typhoon 199721 1997 Season Typhoon 199723 >

Help